sensor_id;sensor_type;location;lat;lon;timestamp;temperature;humidity
9410;DHT22;4744;52.576;13.568;2023-04-15T00:01:57;8.20;80.30
9410;DHT22;4744;52.576;13.568;2023-04-15T00:04:24;8.20;77.50
9410;DHT22;4744;52.576;13.568;2023-04-15T00:06:53;8.20;78.20
9410;DHT22;4744;52.576;13.568;2023-04-15T00:09:20;8.20;80.80
9410;DHT22;4744;52.576;13.568;2023-04-15T00:11:47;8.20;78.50
9410;DHT22;4744;52.576;13.568;2023-04-15T00:14:15;8.20;78.00
9410;DHT22;4744;52.576;13.568;2023-04-15T00:16:42;8.20;79.80
9410;DHT22;4744;52.576;13.568;2023-04-15T00:19:09;8.20;81.70
9410;DHT22;4744;52.576;13.568;2023-04-15T00:21:36;8.10;79.20
9410;DHT22;4744;52.576;13.568;2023-04-15T00:24:05;8.20;83.00
9410;DHT22;4744;52.576;13.568;2023-04-15T00:26:32;8.20;77.40
9410;DHT22;4744;52.576;13.568;2023-04-15T00:29:00;8.20;77.30
9410;DHT22;4744;52.576;13.568;2023-04-15T00:31:27;8.20;79.10
9410;DHT22;4744;52.576;13.568;2023-04-15T00:33:54;8.20;79.30
9410;DHT22;4744;52.576;13.568;2023-04-15T00:36:21;8.20;78.50
9410;DHT22;4744;52.576;13.568;2023-04-15T00:38:49;8.20;76.60
9410;DHT22;4744;52.576;13.568;2023-04-15T00:41:17;8.20;78.00
9410;DHT22;4744;52.576;13.568;2023-04-15T00:43:45;8.20;77.70
9410;DHT22;4744;52.576;13.568;2023-04-15T00:46:13;8.20;76.30
9410;DHT22;4744;52.576;13.568;2023-04-15T00:48:41;8.20;83.60
9410;DHT22;4744;52.576;13.568;2023-04-15T00:51:09;8.20;72.40
9410;DHT22;4744;52.576;13.568;2023-04-15T00:53:36;8.20;77.10
9410;DHT22;4744;52.576;13.568;2023-04-15T00:56:03;8.20;77.50
9410;DHT22;4744;52.576;13.568;2023-04-15T00:58:31;8.20;79.80
9410;DHT22;4744;52.576;13.568;2023-04-15T01:00:59;8.20;79.40
9410;DHT22;4744;52.576;13.568;2023-04-15T01:03:26;8.20;75.10
9410;DHT22;4744;52.576;13.568;2023-04-15T01:05:53;8.20;78.00
9410;DHT22;4744;52.576;13.568;2023-04-15T01:08:25;8.20;77.50
9410;DHT22;4744;52.576;13.568;2023-04-15T01:10:53;8.20;77.60
9410;DHT22;4744;52.576;13.568;2023-04-15T01:13:21;8.20;81.00
9410;DHT22;4744;52.576;13.568;2023-04-15T01:15:50;8.20;78.60
9410;DHT22;4744;52.576;13.568;2023-04-15T01:18:17;8.20;76.60
9410;DHT22;4744;52.576;13.568;2023-04-15T01:20:44;8.20;80.00
9410;DHT22;4744;52.576;13.568;2023-04-15T01:23:11;8.20;79.30
9410;DHT22;4744;52.576;13.568;2023-04-15T01:25:41;8.20;80.40
9410;DHT22;4744;52.576;13.568;2023-04-15T01:28:09;8.20;77.50
9410;DHT22;4744;52.576;13.568;2023-04-15T01:30:36;8.20;77.80
9410;DHT22;4744;52.576;13.568;2023-04-15T01:33:03;8.20;78.10
9410;DHT22;4744;52.576;13.568;2023-04-15T01:35:31;8.20;80.80
9410;DHT22;4744;52.576;13.568;2023-04-15T01:38:03;8.20;78.10
9410;DHT22;4744;52.576;13.568;2023-04-15T01:40:32;8.20;78.40
9410;DHT22;4744;52.576;13.568;2023-04-15T01:43:00;8.20;78.00
9410;DHT22;4744;52.576;13.568;2023-04-15T01:45:27;8.20;76.80
9410;DHT22;4744;52.576;13.568;2023-04-15T01:47:54;8.20;77.00
9410;DHT22;4744;52.576;13.568;2023-04-15T01:50:21;8.20;81.50
9410;DHT22;4744;52.576;13.568;2023-04-15T01:52:48;8.20;78.60
9410;DHT22;4744;52.576;13.568;2023-04-15T01:55:15;8.20;78.30
9410;DHT22;4744;52.576;13.568;2023-04-15T01:57:42;8.20;76.60
9410;DHT22;4744;52.576;13.568;2023-04-15T02:00:11;8.30;75.70
9410;DHT22;4744;52.576;13.568;2023-04-15T02:02:38;8.30;75.50
9410;DHT22;4744;52.576;13.568;2023-04-15T02:05:06;8.30;77.40
9410;DHT22;4744;52.576;13.568;2023-04-15T02:07:33;8.30;77.20
9410;DHT22;4744;52.576;13.568;2023-04-15T02:10:00;8.30;78.50
9410;DHT22;4744;52.576;13.568;2023-04-15T02:12:27;8.30;75.60
9410;DHT22;4744;52.576;13.568;2023-04-15T02:14:54;8.30;76.50
9410;DHT22;4744;52.576;13.568;2023-04-15T02:17:22;8.30;73.40
9410;DHT22;4744;52.576;13.568;2023-04-15T02:19:49;8.30;76.10
9410;DHT22;4744;52.576;13.568;2023-04-15T02:22:16;8.30;79.00
9410;DHT22;4744;52.576;13.568;2023-04-15T02:24:44;8.30;76.90
9410;DHT22;4744;52.576;13.568;2023-04-15T02:27:15;8.30;76.10
9410;DHT22;4744;52.576;13.568;2023-04-15T02:29:42;8.40;73.70
9410;DHT22;4744;52.576;13.568;2023-04-15T02:32:10;8.40;75.50
9410;DHT22;4744;52.576;13.568;2023-04-15T02:34:39;8.40;76.30
9410;DHT22;4744;52.576;13.568;2023-04-15T02:37:07;8.40;76.10
9410;DHT22;4744;52.576;13.568;2023-04-15T02:39:34;8.40;71.60
9410;DHT22;4744;52.576;13.568;2023-04-15T02:42:01;8.40;75.60
9410;DHT22;4744;52.576;13.568;2023-04-15T02:44:29;8.40;71.20
9410;DHT22;4744;52.576;13.568;2023-04-15T02:46:57;8.40;71.00
9410;DHT22;4744;52.576;13.568;2023-04-15T02:49:24;8.40;74.20
9410;DHT22;4744;52.576;13.568;2023-04-15T02:51:52;8.40;74.90
9410;DHT22;4744;52.576;13.568;2023-04-15T02:54:21;8.40;74.70
9410;DHT22;4744;52.576;13.568;2023-04-15T02:56:48;8.40;70.20
9410;DHT22;4744;52.576;13.568;2023-04-15T02:59:15;8.40;73.80
9410;DHT22;4744;52.576;13.568;2023-04-15T03:01:42;8.40;73.40
9410;DHT22;4744;52.576;13.568;2023-04-15T03:04:09;8.40;68.10
9410;DHT22;4744;52.576;13.568;2023-04-15T03:06:36;8.40;72.60
9410;DHT22;4744;52.576;13.568;2023-04-15T03:09:04;8.40;74.80
9410;DHT22;4744;52.576;13.568;2023-04-15T03:11:31;8.40;74.80
9410;DHT22;4744;52.576;13.568;2023-04-15T03:13:59;8.50;73.50
9410;DHT22;4744;52.576;13.568;2023-04-15T03:16:26;8.50;74.30
9410;DHT22;4744;52.576;13.568;2023-04-15T03:18:53;8.50;68.60
9410;DHT22;4744;52.576;13.568;2023-04-15T03:21:20;8.50;72.90
9410;DHT22;4744;52.576;13.568;2023-04-15T03:23:48;8.50;75.60
9410;DHT22;4744;52.576;13.568;2023-04-15T03:26:25;8.50;70.90
9410;DHT22;4744;52.576;13.568;2023-04-15T03:28:53;8.50;74.00
9410;DHT22;4744;52.576;13.568;2023-04-15T03:31:20;8.50;73.00
9410;DHT22;4744;52.576;13.568;2023-04-15T03:33:47;8.60;69.80
9410;DHT22;4744;52.576;13.568;2023-04-15T03:36:14;8.60;66.70
9410;DHT22;4744;52.576;13.568;2023-04-15T03:38:41;8.60;70.40
9410;DHT22;4744;52.576;13.568;2023-04-15T03:41:08;8.60;70.00
9410;DHT22;4744;52.576;13.568;2023-04-15T03:43:36;8.60;75.50
9410;DHT22;4744;52.576;13.568;2023-04-15T03:46:03;8.60;81.70
9410;DHT22;4744;52.576;13.568;2023-04-15T03:48:30;8.60;77.80
9410;DHT22;4744;52.576;13.568;2023-04-15T03:50:57;8.60;77.90
9410;DHT22;4744;52.576;13.568;2023-04-15T03:53:24;8.60;80.20
9410;DHT22;4744;52.576;13.568;2023-04-15T03:55:51;8.60;77.60
9410;DHT22;4744;52.576;13.568;2023-04-15T03:58:18;8.60;78.00
9410;DHT22;4744;52.576;13.568;2023-04-15T04:00:46;8.60;74.10
9410;DHT22;4744;52.576;13.568;2023-04-15T04:03:13;8.60;76.90
9410;DHT22;4744;52.576;13.568;2023-04-15T04:05:40;8.60;78.20
9410;DHT22;4744;52.576;13.568;2023-04-15T04:08:08;8.60;75.70
9410;DHT22;4744;52.576;13.568;2023-04-15T04:10:38;8.70;78.80
9410;DHT22;4744;52.576;13.568;2023-04-15T04:13:05;8.70;72.20
9410;DHT22;4744;52.576;13.568;2023-04-15T04:15:32;8.70;73.20
9410;DHT22;4744;52.576;13.568;2023-04-15T04:18:00;8.70;77.20
9410;DHT22;4744;52.576;13.568;2023-04-15T04:20:28;8.70;77.10
9410;DHT22;4744;52.576;13.568;2023-04-15T04:22:56;8.70;75.60
9410;DHT22;4744;52.576;13.568;2023-04-15T04:25:23;8.70;76.00
9410;DHT22;4744;52.576;13.568;2023-04-15T04:27:50;8.70;73.30
9410;DHT22;4744;52.576;13.568;2023-04-15T04:30:17;8.70;76.60
9410;DHT22;4744;52.576;13.568;2023-04-15T04:32:44;8.70;78.00
9410;DHT22;4744;52.576;13.568;2023-04-15T04:35:12;8.70;75.40
9410;DHT22;4744;52.576;13.568;2023-04-15T04:37:39;8.70;77.10
9410;DHT22;4744;52.576;13.568;2023-04-15T04:40:07;8.80;78.50
9410;DHT22;4744;52.576;13.568;2023-04-15T04:42:35;8.70;74.20
9410;DHT22;4744;52.576;13.568;2023-04-15T04:45:02;8.80;77.80
9410;DHT22;4744;52.576;13.568;2023-04-15T04:47:29;8.80;67.60
9410;DHT22;4744;52.576;13.568;2023-04-15T04:49:56;8.80;76.00
9410;DHT22;4744;52.576;13.568;2023-04-15T04:52:24;8.80;77.30
9410;DHT22;4744;52.576;13.568;2023-04-15T04:54:51;8.80;71.90
9410;DHT22;4744;52.576;13.568;2023-04-15T04:57:18;8.80;71.10
9410;DHT22;4744;52.576;13.568;2023-04-15T04:59:45;8.80;71.20
9410;DHT22;4744;52.576;13.568;2023-04-15T05:02:12;8.90;68.30
9410;DHT22;4744;52.576;13.568;2023-04-15T05:04:39;8.90;67.30
9410;DHT22;4744;52.576;13.568;2023-04-15T05:07:06;8.90;67.90
9410;DHT22;4744;52.576;13.568;2023-04-15T05:09:34;8.90;63.80
9410;DHT22;4744;52.576;13.568;2023-04-15T05:12:01;8.90;62.30
9410;DHT22;4744;52.576;13.568;2023-04-15T05:14:29;8.90;60.30
9410;DHT22;4744;52.576;13.568;2023-04-15T05:16:56;8.90;65.10
9410;DHT22;4744;52.576;13.568;2023-04-15T05:19:23;8.90;59.90
9410;DHT22;4744;52.576;13.568;2023-04-15T05:21:50;8.90;57.00
9410;DHT22;4744;52.576;13.568;2023-04-15T05:24:17;8.90;55.40
9410;DHT22;4744;52.576;13.568;2023-04-15T05:26:45;8.90;49.80
9410;DHT22;4744;52.576;13.568;2023-04-15T05:29:12;9.00;49.90
9410;DHT22;4744;52.576;13.568;2023-04-15T05:31:39;9.00;50.20
9410;DHT22;4744;52.576;13.568;2023-04-15T05:34:06;9.00;54.00
9410;DHT22;4744;52.576;13.568;2023-04-15T05:36:33;9.00;50.80
9410;DHT22;4744;52.576;13.568;2023-04-15T05:39:00;9.00;55.00
9410;DHT22;4744;52.576;13.568;2023-04-15T05:41:27;9.00;48.60
9410;DHT22;4744;52.576;13.568;2023-04-15T05:43:55;9.10;39.30
9410;DHT22;4744;52.576;13.568;2023-04-15T05:46:22;9.10;42.30
9410;DHT22;4744;52.576;13.568;2023-04-15T05:48:49;9.10;42.50
9410;DHT22;4744;52.576;13.568;2023-04-15T05:51:16;9.10;34.20
9410;DHT22;4744;52.576;13.568;2023-04-15T05:53:43;9.10;34.70
9410;DHT22;4744;52.576;13.568;2023-04-15T05:56:10;9.20;32.10
9410;DHT22;4744;52.576;13.568;2023-04-15T05:58:37;9.20;28.50
9410;DHT22;4744;52.576;13.568;2023-04-15T06:01:05;9.20;29.60
9410;DHT22;4744;52.576;13.568;2023-04-15T06:03:32;9.20;28.90
9410;DHT22;4744;52.576;13.568;2023-04-15T06:05:59;9.30;24.70
9410;DHT22;4744;52.576;13.568;2023-04-15T06:08:27;9.30;28.80
9410;DHT22;4744;52.576;13.568;2023-04-15T06:10:54;9.40;21.90
9410;DHT22;4744;52.576;13.568;2023-04-15T06:13:21;9.40;18.50
9410;DHT22;4744;52.576;13.568;2023-04-15T06:15:48;9.50;13.60
9410;DHT22;4744;52.576;13.568;2023-04-15T06:18:16;9.50;13.10
9410;DHT22;4744;52.576;13.568;2023-04-15T06:20:43;9.50;9.20
9410;DHT22;4744;52.576;13.568;2023-04-15T06:23:10;9.60;9.40
9410;DHT22;4744;52.576;13.568;2023-04-15T06:25:37;9.60;4.70
9410;DHT22;4744;52.576;13.568;2023-04-15T06:28:04;9.60;1.00
9410;DHT22;4744;52.576;13.568;2023-04-15T06:30:31;9.70;1.00
9410;DHT22;4744;52.576;13.568;2023-04-15T06:32:58;9.70;1.00
9410;DHT22;4744;52.576;13.568;2023-04-15T06:35:26;9.70;1.00
9410;DHT22;4744;52.576;13.568;2023-04-15T06:37:53;9.80;1.00
9410;DHT22;4744;52.576;13.568;2023-04-15T06:40:20;9.80;1.00
9410;DHT22;4744;52.576;13.568;2023-04-15T06:42:47;9.80;1.00
9410;DHT22;4744;52.576;13.568;2023-04-15T06:45:14;9.90;1.00
9410;DHT22;4744;52.576;13.568;2023-04-15T06:47:41;9.90;1.00
9410;DHT22;4744;52.576;13.568;2023-04-15T06:50:09;10.00;1.00
9410;DHT22;4744;52.576;13.568;2023-04-15T06:52:37;10.00;1.00
9410;DHT22;4744;52.576;13.568;2023-04-15T06:55:05;10.00;1.00
9410;DHT22;4744;52.576;13.568;2023-04-15T06:57:32;10.10;1.00
9410;DHT22;4744;52.576;13.568;2023-04-15T06:59:59;10.10;1.00
9410;DHT22;4744;52.576;13.568;2023-04-15T07:02:26;10.10;1.00
9410;DHT22;4744;52.576;13.568;2023-04-15T07:04:53;10.10;1.00
9410;DHT22;4744;52.576;13.568;2023-04-15T07:07:20;10.10;1.00
9410;DHT22;4744;52.576;13.568;2023-04-15T07:09:48;10.10;1.00
9410;DHT22;4744;52.576;13.568;2023-04-15T07:12:15;10.10;1.00
9410;DHT22;4744;52.576;13.568;2023-04-15T07:14:42;10.10;1.00
9410;DHT22;4744;52.576;13.568;2023-04-15T07:17:09;10.10;1.00
9410;DHT22;4744;52.576;13.568;2023-04-15T07:19:37;10.20;1.00
9410;DHT22;4744;52.576;13.568;2023-04-15T07:22:04;10.20;1.00
9410;DHT22;4744;52.576;13.568;2023-04-15T07:24:31;10.30;1.00
9410;DHT22;4744;52.576;13.568;2023-04-15T07:26:59;10.30;1.00
9410;DHT22;4744;52.576;13.568;2023-04-15T07:29:26;10.30;1.00
9410;DHT22;4744;52.576;13.568;2023-04-15T07:31:53;10.30;1.00
9410;DHT22;4744;52.576;13.568;2023-04-15T07:34:21;10.30;1.00
9410;DHT22;4744;52.576;13.568;2023-04-15T07:36:49;10.30;1.00
9410;DHT22;4744;52.576;13.568;2023-04-15T07:39:16;10.30;1.00
9410;DHT22;4744;52.576;13.568;2023-04-15T07:41:43;10.20;1.00
9410;DHT22;4744;52.576;13.568;2023-04-15T07:44:12;10.20;1.00
9410;DHT22;4744;52.576;13.568;2023-04-15T07:46:39;10.10;1.00
9410;DHT22;4744;52.576;13.568;2023-04-15T07:49:06;10.10;1.00
9410;DHT22;4744;52.576;13.568;2023-04-15T07:51:33;10.10;1.00
9410;DHT22;4744;52.576;13.568;2023-04-15T07:54:00;10.10;1.00
9410;DHT22;4744;52.576;13.568;2023-04-15T07:56:27;10.00;1.00
9410;DHT22;4744;52.576;13.568;2023-04-15T07:58:54;10.00;1.00
9410;DHT22;4744;52.576;13.568;2023-04-15T08:01:22;10.00;1.00
9410;DHT22;4744;52.576;13.568;2023-04-15T08:03:50;10.00;1.00
9410;DHT22;4744;52.576;13.568;2023-04-15T08:06:17;10.00;1.00
9410;DHT22;4744;52.576;13.568;2023-04-15T08:08:44;9.90;1.00
9410;DHT22;4744;52.576;13.568;2023-04-15T08:11:12;9.90;1.00
9410;DHT22;4744;52.576;13.568;2023-04-15T08:13:39;9.90;1.00
9410;DHT22;4744;52.576;13.568;2023-04-15T08:16:17;9.90;1.00
9410;DHT22;4744;52.576;13.568;2023-04-15T08:18:46;9.90;1.00
9410;DHT22;4744;52.576;13.568;2023-04-15T08:21:13;10.00;1.00
9410;DHT22;4744;52.576;13.568;2023-04-15T08:23:40;10.00;1.00
9410;DHT22;4744;52.576;13.568;2023-04-15T08:26:07;10.00;1.00
9410;DHT22;4744;52.576;13.568;2023-04-15T08:28:36;10.10;1.00
9410;DHT22;4744;52.576;13.568;2023-04-15T08:31:03;10.10;1.00
9410;DHT22;4744;52.576;13.568;2023-04-15T08:33:30;10.10;1.00
9410;DHT22;4744;52.576;13.568;2023-04-15T08:35:58;10.10;1.00
9410;DHT22;4744;52.576;13.568;2023-04-15T08:38:25;10.10;1.00
9410;DHT22;4744;52.576;13.568;2023-04-15T08:40:52;10.20;1.00
9410;DHT22;4744;52.576;13.568;2023-04-15T08:43:21;10.20;1.00
9410;DHT22;4744;52.576;13.568;2023-04-15T08:45:51;10.20;1.00
9410;DHT22;4744;52.576;13.568;2023-04-15T08:48:19;10.30;1.00
9410;DHT22;4744;52.576;13.568;2023-04-15T08:50:47;10.30;1.00
9410;DHT22;4744;52.576;13.568;2023-04-15T08:53:15;10.30;1.00
9410;DHT22;4744;52.576;13.568;2023-04-15T08:55:43;10.30;1.00
9410;DHT22;4744;52.576;13.568;2023-04-15T08:58:11;10.40;1.00
9410;DHT22;4744;52.576;13.568;2023-04-15T09:00:38;10.40;1.00
9410;DHT22;4744;52.576;13.568;2023-04-15T09:03:06;10.40;1.00
9410;DHT22;4744;52.576;13.568;2023-04-15T09:05:36;10.40;1.00
9410;DHT22;4744;52.576;13.568;2023-04-15T09:08:04;10.40;1.00
9410;DHT22;4744;52.576;13.568;2023-04-15T09:10:33;10.40;1.00
9410;DHT22;4744;52.576;13.568;2023-04-15T09:13:00;10.40;1.00
9410;DHT22;4744;52.576;13.568;2023-04-15T09:15:27;10.40;1.00
9410;DHT22;4744;52.576;13.568;2023-04-15T09:17:56;10.50;1.00
9410;DHT22;4744;52.576;13.568;2023-04-15T09:20:23;10.50;1.00
9410;DHT22;4744;52.576;13.568;2023-04-15T09:22:50;10.50;1.00
9410;DHT22;4744;52.576;13.568;2023-04-15T09:25:28;10.40;1.00
9410;DHT22;4744;52.576;13.568;2023-04-15T09:27:58;10.40;1.00
9410;DHT22;4744;52.576;13.568;2023-04-15T09:30:27;10.40;1.00
9410;DHT22;4744;52.576;13.568;2023-04-15T09:32:55;10.40;1.00
9410;DHT22;4744;52.576;13.568;2023-04-15T09:35:24;10.40;1.00
9410;DHT22;4744;52.576;13.568;2023-04-15T09:37:52;10.40;1.00
9410;DHT22;4744;52.576;13.568;2023-04-15T09:40:33;10.40;1.00
9410;DHT22;4744;52.576;13.568;2023-04-15T09:43:01;10.50;1.00
9410;DHT22;4744;52.576;13.568;2023-04-15T09:45:29;10.40;1.00
9410;DHT22;4744;52.576;13.568;2023-04-15T09:47:57;10.40;1.00
9410;DHT22;4744;52.576;13.568;2023-04-15T09:50:26;10.40;1.00
9410;DHT22;4744;52.576;13.568;2023-04-15T09:52:54;10.40;1.00
9410;DHT22;4744;52.576;13.568;2023-04-15T09:55:21;10.40;1.00
9410;DHT22;4744;52.576;13.568;2023-04-15T09:57:48;10.40;1.00
9410;DHT22;4744;52.576;13.568;2023-04-15T10:00:16;10.40;1.00
9410;DHT22;4744;52.576;13.568;2023-04-15T10:02:46;10.40;1.00
9410;DHT22;4744;52.576;13.568;2023-04-15T10:05:14;10.40;1.00
9410;DHT22;4744;52.576;13.568;2023-04-15T10:07:42;10.50;1.00
9410;DHT22;4744;52.576;13.568;2023-04-15T10:10:10;10.40;1.00
9410;DHT22;4744;52.576;13.568;2023-04-15T10:12:40;10.40;1.00
9410;DHT22;4744;52.576;13.568;2023-04-15T10:15:13;10.50;1.00
9410;DHT22;4744;52.576;13.568;2023-04-15T10:17:43;10.50;1.00
9410;DHT22;4744;52.576;13.568;2023-04-15T10:20:11;10.50;1.00
9410;DHT22;4744;52.576;13.568;2023-04-15T10:22:40;10.50;1.00
9410;DHT22;4744;52.576;13.568;2023-04-15T10:25:09;10.50;1.00
9410;DHT22;4744;52.576;13.568;2023-04-15T10:27:37;10.60;1.00
9410;DHT22;4744;52.576;13.568;2023-04-15T10:30:06;10.60;1.00
9410;DHT22;4744;52.576;13.568;2023-04-15T10:32:33;10.60;1.00
9410;DHT22;4744;52.576;13.568;2023-04-15T10:35:04;10.60;1.00
9410;DHT22;4744;52.576;13.568;2023-04-15T10:37:34;10.70;1.00
9410;DHT22;4744;52.576;13.568;2023-04-15T10:40:25;10.70;1.00
9410;DHT22;4744;52.576;13.568;2023-04-15T10:42:54;10.70;1.00
9410;DHT22;4744;52.576;13.568;2023-04-15T10:45:21;10.70;1.00
9410;DHT22;4744;52.576;13.568;2023-04-15T10:47:51;10.80;1.00
9410;DHT22;4744;52.576;13.568;2023-04-15T10:50:20;10.80;1.00
9410;DHT22;4744;52.576;13.568;2023-04-15T10:52:50;10.80;1.00
9410;DHT22;4744;52.576;13.568;2023-04-15T10:55:19;10.90;1.00
9410;DHT22;4744;52.576;13.568;2023-04-15T10:57:46;10.90;1.00
9410;DHT22;4744;52.576;13.568;2023-04-15T11:00:18;10.90;1.00
9410;DHT22;4744;52.576;13.568;2023-04-15T11:02:51;10.90;1.00
9410;DHT22;4744;52.576;13.568;2023-04-15T11:05:20;10.90;1.00
9410;DHT22;4744;52.576;13.568;2023-04-15T11:07:55;10.90;1.00
9410;DHT22;4744;52.576;13.568;2023-04-15T11:10:50;10.90;1.00
9410;DHT22;4744;52.576;13.568;2023-04-15T11:13:27;10.90;1.00
9410;DHT22;4744;52.576;13.568;2023-04-15T11:16:00;10.80;1.00
9410;DHT22;4744;52.576;13.568;2023-04-15T11:18:31;10.80;1.00
9410;DHT22;4744;52.576;13.568;2023-04-15T11:21:02;10.80;1.00
9410;DHT22;4744;52.576;13.568;2023-04-15T11:23:32;10.80;1.00
9410;DHT22;4744;52.576;13.568;2023-04-15T11:26:00;10.80;1.00
9410;DHT22;4744;52.576;13.568;2023-04-15T11:30:56;10.80;1.00
9410;DHT22;4744;52.576;13.568;2023-04-15T11:33:24;10.80;1.00
9410;DHT22;4744;52.576;13.568;2023-04-15T11:35:52;10.70;1.00
9410;DHT22;4744;52.576;13.568;2023-04-15T11:38:21;10.70;1.00
9410;DHT22;4744;52.576;13.568;2023-04-15T11:40:49;10.70;1.00
9410;DHT22;4744;52.576;13.568;2023-04-15T11:43:18;10.70;1.00
9410;DHT22;4744;52.576;13.568;2023-04-15T11:45:51;10.70;1.00
9410;DHT22;4744;52.576;13.568;2023-04-15T11:48:20;10.70;1.00
9410;DHT22;4744;52.576;13.568;2023-04-15T11:50:52;10.70;1.00
9410;DHT22;4744;52.576;13.568;2023-04-15T11:53:21;10.70;1.00
9410;DHT22;4744;52.576;13.568;2023-04-15T11:55:50;10.70;1.00
9410;DHT22;4744;52.576;13.568;2023-04-15T11:58:19;10.70;1.00
9410;DHT22;4744;52.576;13.568;2023-04-15T12:00:47;10.70;1.00
9410;DHT22;4744;52.576;13.568;2023-04-15T12:03:17;10.70;1.00
9410;DHT22;4744;52.576;13.568;2023-04-15T12:06:06;10.70;1.00
9410;DHT22;4744;52.576;13.568;2023-04-15T12:11:45;10.70;1.00
9410;DHT22;4744;52.576;13.568;2023-04-15T12:14:20;10.70;1.00
9410;DHT22;4744;52.576;13.568;2023-04-15T12:16:49;10.80;1.00
9410;DHT22;4744;52.576;13.568;2023-04-15T12:19:17;10.90;1.00
9410;DHT22;4744;52.576;13.568;2023-04-15T12:21:46;10.90;1.00
9410;DHT22;4744;52.576;13.568;2023-04-15T12:24:14;10.90;1.00
9410;DHT22;4744;52.576;13.568;2023-04-15T12:26:46;10.90;1.00
9410;DHT22;4744;52.576;13.568;2023-04-15T12:29:15;10.90;1.00
9410;DHT22;4744;52.576;13.568;2023-04-15T12:31:50;10.90;1.00
9410;DHT22;4744;52.576;13.568;2023-04-15T12:34:17;10.90;1.00
9410;DHT22;4744;52.576;13.568;2023-04-15T12:36:45;10.90;1.00
9410;DHT22;4744;52.576;13.568;2023-04-15T12:39:12;10.90;1.00
9410;DHT22;4744;52.576;13.568;2023-04-15T12:41:39;10.90;1.00
9410;DHT22;4744;52.576;13.568;2023-04-15T12:44:07;10.90;1.00
9410;DHT22;4744;52.576;13.568;2023-04-15T12:46:34;11.00;1.00
9410;DHT22;4744;52.576;13.568;2023-04-15T12:49:01;11.00;1.00
9410;DHT22;4744;52.576;13.568;2023-04-15T12:51:28;11.00;1.00
9410;DHT22;4744;52.576;13.568;2023-04-15T12:53:56;11.00;1.00
9410;DHT22;4744;52.576;13.568;2023-04-15T12:56:23;11.10;1.00
9410;DHT22;4744;52.576;13.568;2023-04-15T12:58:51;11.10;1.00
9410;DHT22;4744;52.576;13.568;2023-04-15T13:01:19;11.10;1.00
9410;DHT22;4744;52.576;13.568;2023-04-15T13:03:46;11.10;1.00
9410;DHT22;4744;52.576;13.568;2023-04-15T13:06:15;11.10;1.00
9410;DHT22;4744;52.576;13.568;2023-04-15T13:08:42;11.10;1.00
9410;DHT22;4744;52.576;13.568;2023-04-15T13:11:09;11.00;1.00
9410;DHT22;4744;52.576;13.568;2023-04-15T13:13:36;11.00;1.00
9410;DHT22;4744;52.576;13.568;2023-04-15T13:16:03;11.00;1.00
9410;DHT22;4744;52.576;13.568;2023-04-15T13:18:32;11.00;1.00
9410;DHT22;4744;52.576;13.568;2023-04-15T13:20:59;10.90;1.00
9410;DHT22;4744;52.576;13.568;2023-04-15T13:23:26;10.90;1.00
9410;DHT22;4744;52.576;13.568;2023-04-15T13:25:53;10.90;1.00
9410;DHT22;4744;52.576;13.568;2023-04-15T13:28:20;10.90;1.00
9410;DHT22;4744;52.576;13.568;2023-04-15T13:30:47;10.80;1.00
9410;DHT22;4744;52.576;13.568;2023-04-15T13:33:15;10.80;1.00
9410;DHT22;4744;52.576;13.568;2023-04-15T13:35:43;10.80;1.00
9410;DHT22;4744;52.576;13.568;2023-04-15T13:38:10;10.80;1.00
9410;DHT22;4744;52.576;13.568;2023-04-15T13:40:37;10.80;1.00
9410;DHT22;4744;52.576;13.568;2023-04-15T13:43:04;10.80;1.00
9410;DHT22;4744;52.576;13.568;2023-04-15T13:45:31;10.80;1.00
9410;DHT22;4744;52.576;13.568;2023-04-15T13:47:58;10.90;1.00
9410;DHT22;4744;52.576;13.568;2023-04-15T13:50:26;10.90;1.00
9410;DHT22;4744;52.576;13.568;2023-04-15T13:52:54;10.90;1.00
9410;DHT22;4744;52.576;13.568;2023-04-15T13:55:21;10.90;1.00
9410;DHT22;4744;52.576;13.568;2023-04-15T13:57:48;10.90;1.00
9410;DHT22;4744;52.576;13.568;2023-04-15T14:00:15;10.90;1.00
9410;DHT22;4744;52.576;13.568;2023-04-15T14:02:42;10.90;1.00
9410;DHT22;4744;52.576;13.568;2023-04-15T14:05:10;10.90;1.00
9410;DHT22;4744;52.576;13.568;2023-04-15T14:07:37;10.90;1.00
9410;DHT22;4744;52.576;13.568;2023-04-15T14:10:06;10.90;1.00
9410;DHT22;4744;52.576;13.568;2023-04-15T14:12:33;10.90;1.00
9410;DHT22;4744;52.576;13.568;2023-04-15T14:15:00;10.90;1.00
9410;DHT22;4744;52.576;13.568;2023-04-15T14:17:27;10.90;1.00
9410;DHT22;4744;52.576;13.568;2023-04-15T14:19:54;10.80;1.00
9410;DHT22;4744;52.576;13.568;2023-04-15T14:22:20;10.80;1.00
9410;DHT22;4744;52.576;13.568;2023-04-15T14:24:47;10.80;1.00
9410;DHT22;4744;52.576;13.568;2023-04-15T14:27:19;10.80;1.00
9410;DHT22;4744;52.576;13.568;2023-04-15T14:29:45;10.80;1.00
9410;DHT22;4744;52.576;13.568;2023-04-15T14:32:12;10.80;1.00
9410;DHT22;4744;52.576;13.568;2023-04-15T14:34:39;10.80;1.00
9410;DHT22;4744;52.576;13.568;2023-04-15T14:37:06;10.70;1.00
9410;DHT22;4744;52.576;13.568;2023-04-15T14:39:33;10.70;1.00
9410;DHT22;4744;52.576;13.568;2023-04-15T14:42:00;10.70;1.00
9410;DHT22;4744;52.576;13.568;2023-04-15T14:44:28;10.70;1.00
9410;DHT22;4744;52.576;13.568;2023-04-15T14:46:55;10.70;1.00
9410;DHT22;4744;52.576;13.568;2023-04-15T14:49:22;10.70;1.00
9410;DHT22;4744;52.576;13.568;2023-04-15T14:51:49;10.70;1.00
9410;DHT22;4744;52.576;13.568;2023-04-15T14:54:16;10.70;1.00
9410;DHT22;4744;52.576;13.568;2023-04-15T14:56:43;10.70;2.80
9410;DHT22;4744;52.576;13.568;2023-04-15T14:59:10;10.70;1.00
9410;DHT22;4744;52.576;13.568;2023-04-15T15:01:38;10.70;3.90
9410;DHT22;4744;52.576;13.568;2023-04-15T15:04:05;10.70;1.00
9410;DHT22;4744;52.576;13.568;2023-04-15T15:06:33;10.60;3.60
9410;DHT22;4744;52.576;13.568;2023-04-15T15:09:00;10.60;8.50
9410;DHT22;4744;52.576;13.568;2023-04-15T15:11:27;10.60;6.60
9410;DHT22;4744;52.576;13.568;2023-04-15T15:13:55;10.60;11.30
9410;DHT22;4744;52.576;13.568;2023-04-15T15:16:23;10.60;9.80
9410;DHT22;4744;52.576;13.568;2023-04-15T15:18:51;10.60;19.90
9410;DHT22;4744;52.576;13.568;2023-04-15T15:21:18;10.60;13.20
9410;DHT22;4744;52.576;13.568;2023-04-15T15:23:45;10.60;16.00
9410;DHT22;4744;52.576;13.568;2023-04-15T15:26:13;10.60;17.80
9410;DHT22;4744;52.576;13.568;2023-04-15T15:28:39;10.60;21.10
9410;DHT22;4744;52.576;13.568;2023-04-15T15:31:07;10.60;24.10
9410;DHT22;4744;52.576;13.568;2023-04-15T15:33:34;10.60;25.80
9410;DHT22;4744;52.576;13.568;2023-04-15T15:36:03;10.60;26.10
9410;DHT22;4744;52.576;13.568;2023-04-15T15:38:30;10.60;24.00
9410;DHT22;4744;52.576;13.568;2023-04-15T15:40:57;10.60;29.50
9410;DHT22;4744;52.576;13.568;2023-04-15T15:43:24;10.60;29.20
9410;DHT22;4744;52.576;13.568;2023-04-15T15:45:51;10.70;29.90
9410;DHT22;4744;52.576;13.568;2023-04-15T15:48:20;10.70;26.60
9410;DHT22;4744;52.576;13.568;2023-04-15T15:50:47;10.70;31.40
9410;DHT22;4744;52.576;13.568;2023-04-15T15:53:15;10.70;35.00
9410;DHT22;4744;52.576;13.568;2023-04-15T15:55:45;10.70;31.50
9410;DHT22;4744;52.576;13.568;2023-04-15T15:58:12;10.70;31.60
9410;DHT22;4744;52.576;13.568;2023-04-15T16:00:39;10.70;28.10
9410;DHT22;4744;52.576;13.568;2023-04-15T16:03:06;10.70;29.70
9410;DHT22;4744;52.576;13.568;2023-04-15T16:05:33;10.70;21.10
9410;DHT22;4744;52.576;13.568;2023-04-15T16:08:00;10.70;28.60
9410;DHT22;4744;52.576;13.568;2023-04-15T16:10:28;10.70;29.30
9410;DHT22;4744;52.576;13.568;2023-04-15T16:12:55;10.70;27.30